createdAt,value
2023-04-20T00:03:33.072Z,2.10
2023-04-20T00:08:36.914Z,2.28
2023-04-20T00:13:40.611Z,2.50
2023-04-20T00:18:46.611Z,2.47
2023-04-20T00:23:50.773Z,2.90
2023-04-20T00:28:54.477Z,2.55
2023-04-20T00:33:59.540Z,2.80
2023-04-20T00:39:04.990Z,2.60
2023-04-20T00:44:11.325Z,2.45
2023-04-20T00:49:18.090Z,2.65
2023-04-20T00:54:22.410Z,2.67
2023-04-20T00:59:26.372Z,2.42
2023-04-20T01:04:31.435Z,2.65
2023-04-20T01:09:35.457Z,2.70
2023-04-20T01:14:39.271Z,2.50
2023-04-20T01:19:44.948Z,2.42
2023-04-20T01:24:50.095Z,2.35
2023-04-20T01:29:53.853Z,2.75
2023-04-20T01:34:57.552Z,2.90
2023-04-20T01:40:03.442Z,2.17
2023-04-20T01:45:08.219Z,2.80
2023-04-20T01:50:12.299Z,2.37
2023-04-20T01:55:19.585Z,2.17
2023-04-20T02:00:24.404Z,2.70
2023-04-20T02:05:28.159Z,2.65
2023-04-20T02:10:35.816Z,2.85
2023-04-20T02:15:39.541Z,2.75
2023-04-20T02:20:43.274Z,2.65
2023-04-20T02:25:48.361Z,2.85
2023-04-20T02:30:52.249Z,2.45
2023-04-20T02:35:56.131Z,2.62
2023-04-20T02:41:01.158Z,2.30
2023-04-20T02:46:05.149Z,2.62
2023-04-20T02:51:09.040Z,3.08
2023-04-20T02:56:15.555Z,2.78
2023-04-20T03:01:19.593Z,2.83
2023-04-20T03:06:24.025Z,3.08
2023-04-20T03:11:30.069Z,2.70
2023-04-20T03:16:35.421Z,3.60
2023-04-20T03:21:40.828Z,2.60
2023-04-20T03:26:46.176Z,4.32
2023-04-20T03:31:50.726Z,2.95
2023-04-20T03:36:55.537Z,3.22
2023-04-20T03:42:01.733Z,2.60
2023-04-20T03:47:05.559Z,2.92
2023-04-20T03:52:10.463Z,3.03
2023-04-20T03:57:15.586Z,3.20
2023-04-20T04:02:19.768Z,3.42
2023-04-20T04:07:23.762Z,3.10
2023-04-20T04:12:28.893Z,3.00
2023-04-20T04:17:32.734Z,3.22
2023-04-20T04:22:36.549Z,3.17
2023-04-20T04:27:47.018Z,2.75
2023-04-20T04:32:50.989Z,3.25
2023-04-20T04:37:54.986Z,3.25
2023-04-20T04:43:00.690Z,3.00
2023-04-20T04:48:08.070Z,3.10
2023-04-20T04:53:12.602Z,3.35
2023-04-20T04:58:17.941Z,3.50
2023-04-20T05:03:21.781Z,3.17
2023-04-20T05:08:25.570Z,3.12
2023-04-20T05:13:30.599Z,3.20
2023-04-20T05:18:34.288Z,3.47
2023-04-20T05:23:38.010Z,3.10
2023-04-20T05:28:43.085Z,2.83
2023-04-20T05:33:46.776Z,3.40
2023-04-20T05:38:50.453Z,3.03
2023-04-20T05:43:56.896Z,2.90
2023-04-20T05:49:00.769Z,3.03
2023-04-20T05:54:05.039Z,3.62
2023-04-20T05:59:10.286Z,3.58
2023-04-20T06:04:14.187Z,3.28
2023-04-20T06:09:18.198Z,3.67
2023-04-20T06:14:23.449Z,4.97
2023-04-20T06:19:27.174Z,3.40
2023-04-20T06:24:30.985Z,3.05
2023-04-20T06:29:36.049Z,2.97
2023-04-20T06:34:39.709Z,3.12
2023-04-20T06:39:43.458Z,3.22
2023-04-20T06:44:48.550Z,3.20
2023-04-20T06:49:52.253Z,2.75
2023-04-20T06:54:55.990Z,3.08
2023-04-20T07:00:01.348Z,3.40
2023-04-20T07:05:05.650Z,3.00
2023-04-20T07:10:11.093Z,3.08
2023-04-20T07:15:16.161Z,3.28
2023-04-20T07:20:19.849Z,2.85
2023-04-20T07:25:24.492Z,3.12
2023-04-20T07:30:31.197Z,3.62
2023-04-20T07:35:34.951Z,2.95
2023-04-20T07:40:38.729Z,3.12
2023-04-20T07:45:43.950Z,3.90
2023-04-20T07:50:48.007Z,3.87
2023-04-20T07:55:51.943Z,4.35
2023-04-20T08:00:57.335Z,3.67
2023-04-20T08:06:01.091Z,3.65
2023-04-20T08:11:08.127Z,3.42
2023-04-20T08:16:13.741Z,4.35
2023-04-20T08:21:17.512Z,4.10
2023-04-20T08:26:25.248Z,4.22
2023-04-20T08:31:30.549Z,3.30
2023-04-20T08:36:34.290Z,3.70
2023-04-20T08:41:38.301Z,3.53
2023-04-20T08:46:48.231Z,2.85
2023-04-20T08:51:52.783Z,2.95
2023-04-20T08:56:57.015Z,3.40
2023-04-20T09:02:12.037Z,2.80
2023-04-20T09:07:20.150Z,3.15
2023-04-20T09:12:24.831Z,3.10
2023-04-20T09:17:34.646Z,3.22
2023-04-20T09:22:39.462Z,3.40
2023-04-20T09:27:43.335Z,3.58
2023-04-20T09:32:49.115Z,4.05
2023-04-20T09:37:54.217Z,3.15
2023-04-20T09:43:04.040Z,3.80
2023-04-20T09:48:09.854Z,3.28
2023-04-20T09:53:14.615Z,3.47
2023-04-20T09:58:20.303Z,3.97
2023-04-20T10:03:26.162Z,2.83
2023-04-20T10:08:41.635Z,2.58
2023-04-20T10:13:45.369Z,3.37
2023-04-20T10:19:01.902Z,3.42
2023-04-20T10:24:06.403Z,3.62
2023-04-20T10:29:10.621Z,3.35
2023-04-20T10:34:15.878Z,3.50
2023-04-20T10:39:22.729Z,3.10
2023-04-20T10:44:26.920Z,2.95
2023-04-20T10:49:32.339Z,3.20
2023-04-20T10:54:38.938Z,3.35
2023-04-20T10:59:42.738Z,3.10
2023-04-20T11:04:48.599Z,2.58
2023-04-20T11:09:56.185Z,4.12
2023-04-20T11:15:02.932Z,2.93
2023-04-20T11:20:11.039Z,3.45
2023-04-20T11:25:14.789Z,3.00
2023-04-20T11:30:18.606Z,3.28
2023-04-20T11:35:23.853Z,3.05
2023-04-20T11:40:28.499Z,3.03
2023-04-20T11:45:36.332Z,3.40
2023-04-20T11:50:42.631Z,2.73
2023-04-20T11:55:46.462Z,3.03
2023-04-20T12:00:50.217Z,2.87
2023-04-20T12:05:55.492Z,2.90
2023-04-20T12:10:59.464Z,3.40
2023-04-20T12:16:03.207Z,3.22
2023-04-20T12:21:08.516Z,4.00
2023-04-20T12:26:12.228Z,4.20
2023-04-20T12:31:16.108Z,4.03
2023-04-20T12:36:21.188Z,4.87
2023-04-20T12:41:25.277Z,4.00
2023-04-20T12:46:29.265Z,4.65
2023-04-20T12:51:34.516Z,4.00
2023-04-20T12:56:38.229Z,4.15
2023-04-20T13:01:41.963Z,4.40
2023-04-20T13:06:47.058Z,4.50
2023-04-20T13:11:50.782Z,5.20
2023-04-20T13:16:55.530Z,4.18
2023-04-20T13:22:00.885Z,3.90
2023-04-20T13:27:04.787Z,3.90
2023-04-20T13:32:08.600Z,3.95
2023-04-20T13:37:13.899Z,4.30
2023-04-20T13:42:17.683Z,4.10
2023-04-20T13:47:21.574Z,4.10
2023-04-20T13:52:26.837Z,4.62
2023-04-20T13:57:31.627Z,4.78
2023-04-20T14:02:35.506Z,4.65
2023-04-20T14:07:40.671Z,4.72
2023-04-20T14:12:44.389Z,5.35
2023-04-20T14:17:51.745Z,4.15
2023-04-20T14:22:57.542Z,4.55
2023-04-20T14:28:01.708Z,4.72
2023-04-20T14:33:06.587Z,4.68
2023-04-20T14:38:11.780Z,4.70
2023-04-20T14:43:15.562Z,5.22
2023-04-20T14:48:19.352Z,5.43
2023-04-20T14:53:24.522Z,4.50
2023-04-20T14:58:28.287Z,5.07
2023-04-20T15:03:32.332Z,5.07
2023-04-20T15:08:37.700Z,4.43
2023-04-20T15:13:42.419Z,3.83
2023-04-20T15:18:46.538Z,4.60
2023-04-20T15:23:51.853Z,4.87
2023-04-20T15:28:56.600Z,5.10
2023-04-20T15:34:01.392Z,4.78
2023-04-20T15:39:07.193Z,4.60
2023-04-20T15:44:10.944Z,4.53
2023-04-20T15:49:15.253Z,4.80
2023-04-20T15:54:23.673Z,5.30
2023-04-20T16:04:30.914Z,5.10
2023-04-20T16:09:36.125Z,5.03
2023-04-20T16:14:39.888Z,4.80
2023-04-20T16:19:43.858Z,5.10
2023-04-20T16:24:49.317Z,4.90
2023-04-20T16:29:53.456Z,5.22
2023-04-20T16:34:57.492Z,4.97
2023-04-20T16:40:04.607Z,5.55
2023-04-20T16:45:09.631Z,5.53
2023-04-20T16:50:19.292Z,5.40
2023-04-20T16:55:25.857Z,4.93
2023-04-20T17:00:30.123Z,5.85
2023-04-20T17:05:33.888Z,5.28
2023-04-20T17:10:39.384Z,5.22
2023-04-20T17:15:45.057Z,5.50
2023-04-20T17:20:49.453Z,5.18
2023-04-20T17:25:54.746Z,5.85
2023-04-20T17:30:58.465Z,6.65
2023-04-20T17:36:02.201Z,6.03
2023-04-20T17:41:07.344Z,6.37
2023-04-20T17:46:11.187Z,6.37
2023-04-20T17:51:15.086Z,6.15
2023-04-20T17:56:20.180Z,5.90
2023-04-20T18:01:24.047Z,6.20
2023-04-20T18:06:27.930Z,6.15
2023-04-20T18:11:33.003Z,6.40
2023-04-20T18:16:36.810Z,6.32
2023-04-20T18:21:40.929Z,7.07
2023-04-20T18:26:46.279Z,7.12
2023-04-20T18:31:53.402Z,6.62
2023-04-20T18:36:57.861Z,6.35
2023-04-20T18:42:03.329Z,6.35
2023-04-20T18:47:07.130Z,6.47
2023-04-20T18:52:11.281Z,6.40
2023-04-20T18:57:16.707Z,6.62
2023-04-20T19:02:20.603Z,10.32
2023-04-20T19:07:24.438Z,6.78
2023-04-20T19:12:29.476Z,6.43
2023-04-20T19:17:33.508Z,6.03
2023-04-20T19:22:37.491Z,6.90
2023-04-20T19:27:43.059Z,5.75
2023-04-20T19:32:47.196Z,5.85
2023-04-20T19:37:51.013Z,6.10
2023-04-20T19:42:56.313Z,5.90
2023-04-20T19:48:00.460Z,7.03
2023-04-20T19:53:04.703Z,6.87
2023-04-20T19:58:10.935Z,7.28
2023-04-20T20:03:16.076Z,7.40
2023-04-20T20:08:20.460Z,7.65
2023-04-20T20:13:26.608Z,7.87
2023-04-20T20:18:31.099Z,6.85
2023-04-20T20:23:35.025Z,7.28
2023-04-20T20:28:40.345Z,7.62
2023-04-20T20:33:44.348Z,6.45
2023-04-20T20:38:48.556Z,6.45
2023-04-20T20:43:55.227Z,6.68
2023-04-20T20:49:00.969Z,6.30
2023-04-20T20:54:05.905Z,6.80
2023-04-20T20:59:11.382Z,6.03
2023-04-20T21:04:15.313Z,6.10
2023-04-20T21:09:19.243Z,6.10
2023-04-20T21:14:24.658Z,5.25
2023-04-20T21:19:28.374Z,5.65
2023-04-20T21:24:32.085Z,5.90
2023-04-20T21:29:37.125Z,6.40
2023-04-20T21:34:40.817Z,6.35
2023-04-20T21:39:44.559Z,6.43
2023-04-20T21:44:49.592Z,6.25
2023-04-20T21:49:53.351Z,6.85
2023-04-20T21:54:57.032Z,6.30
2023-04-20T22:00:02.165Z,6.47
2023-04-20T22:05:08.089Z,6.50
2023-04-20T22:10:11.844Z,7.70
2023-04-20T22:15:17.156Z,8.02
2023-04-20T22:20:20.974Z,7.72
2023-04-20T22:25:25.608Z,9.07
2023-04-20T22:30:30.779Z,8.52
2023-04-20T22:35:34.475Z,10.00
2023-04-20T22:40:38.225Z,10.15
2023-04-20T22:45:43.421Z,11.75
2023-04-20T22:50:47.117Z,11.70
2023-04-20T22:55:50.823Z,11.52
2023-04-20T23:00:56.002Z,12.68
2023-04-20T23:05:59.751Z,13.62
2023-04-20T23:11:04.678Z,14.15
2023-04-20T23:16:10.315Z,15.20
2023-04-20T23:21:14.114Z,14.60
2023-04-20T23:26:17.842Z,15.48
2023-04-20T23:31:23.224Z,17.08
2023-04-20T23:36:27.369Z,17.95
2023-04-20T23:41:31.602Z,17.73
2023-04-20T23:46:36.632Z,18.37
2023-04-20T23:51:40.426Z,17.90
2023-04-20T23:56:44.168Z,19.17
